sensor_id;sensor_type;location;lat;lon;timestamp;pressure;altitude;pressure_sealevel;temperature;humidity
35704;BME280;21820;51.112;13.762;2023-04-15T00:02:17;98239.06;;;21.73;58.72
35704;BME280;21820;51.112;13.762;2023-04-15T00:04:46;98240.22;;;21.70;57.58
35704;BME280;21820;51.112;13.762;2023-04-15T00:07:12;98233.72;;;21.66;58.50
35704;BME280;21820;51.112;13.762;2023-04-15T00:09:38;98227.13;;;21.70;58.45
35704;BME280;21820;51.112;13.762;2023-04-15T00:12:04;98211.19;;;21.57;58.25
35704;BME280;21820;51.112;13.762;2023-04-15T00:14:29;98234.34;;;21.68;58.17
35704;BME280;21820;51.112;13.762;2023-04-15T00:16:55;98235.28;;;21.75;58.30
35704;BME280;21820;51.112;13.762;2023-04-15T00:19:22;98212.63;;;21.68;58.31
35704;BME280;21820;51.112;13.762;2023-04-15T00:21:48;98229.25;;;21.75;57.39
35704;BME280;21820;51.112;13.762;2023-04-15T00:24:13;98226.78;;;21.73;58.33
35704;BME280;21820;51.112;13.762;2023-04-15T00:26:39;98227.44;;;21.75;58.63
35704;BME280;21820;51.112;13.762;2023-04-15T00:29:05;98224.81;;;21.75;57.75
35704;BME280;21820;51.112;13.762;2023-04-15T00:31:31;98231.03;;;21.74;57.84
35704;BME280;21820;51.112;13.762;2023-04-15T00:33:56;98226.78;;;21.73;57.85
35704;BME280;21820;51.112;13.762;2023-04-15T00:36:21;98229.25;;;21.75;58.26
35704;BME280;21820;51.112;13.762;2023-04-15T00:38:47;98225.16;;;21.72;57.90
35704;BME280;21820;51.112;13.762;2023-04-15T00:41:13;98225.16;;;21.72;57.69
35704;BME280;21820;51.112;13.762;2023-04-15T00:43:38;98225.16;;;21.72;57.90
35704;BME280;21820;51.112;13.762;2023-04-15T00:46:04;98229.09;;;21.76;57.83
35704;BME280;21820;51.112;13.762;2023-04-15T00:48:30;98210.84;;;21.60;57.62
35704;BME280;21820;51.112;13.762;2023-04-15T00:50:56;98217.03;;;21.67;58.38
35704;BME280;21820;51.112;13.762;2023-04-15T00:53:22;98216.50;;;21.72;58.29
35704;BME280;21820;51.112;13.762;2023-04-15T00:55:47;98218.31;;;21.71;57.96
35704;BME280;21820;51.112;13.762;2023-04-15T00:58:13;98215.88;;;21.70;58.69
35704;BME280;21820;51.112;13.762;2023-04-15T01:00:39;98203.66;;;21.62;58.30
35704;BME280;21820;51.112;13.762;2023-04-15T01:03:05;98204.94;;;21.66;58.29
35704;BME280;21820;51.112;13.762;2023-04-15T01:05:31;98203.59;;;21.70;58.55
35704;BME280;21820;51.112;13.762;2023-04-15T01:07:56;98202.63;;;21.71;58.06
35704;BME280;21820;51.112;13.762;2023-04-15T01:10:22;98199.34;;;21.69;57.97
35704;BME280;21820;51.112;13.762;2023-04-15T01:12:47;98181.78;;;21.55;58.55
35704;BME280;21820;51.112;13.762;2023-04-15T01:15:13;98195.44;;;21.65;57.96
35704;BME280;21820;51.112;13.762;2023-04-15T01:17:39;98180.53;;;21.51;57.48
35704;BME280;21820;51.112;13.762;2023-04-15T01:20:05;98195.16;;;21.60;58.10
35704;BME280;21820;51.112;13.762;2023-04-15T01:22:32;98190.97;;;21.51;58.45
35704;BME280;21820;51.112;13.762;2023-04-15T01:25:07;98176.13;;;21.44;58.73
35704;BME280;21820;51.112;13.762;2023-04-15T01:27:34;98205.50;;;21.54;57.96
35704;BME280;21820;51.112;13.762;2023-04-15T01:30:00;98198.81;;;21.51;57.76
35704;BME280;21820;51.112;13.762;2023-04-15T01:32:26;98194.56;;;21.50;57.92
35704;BME280;21820;51.112;13.762;2023-04-15T01:34:52;98189.00;;;21.53;58.40
35704;BME280;21820;51.112;13.762;2023-04-15T01:37:17;98191.63;;;21.53;58.45
35704;BME280;21820;51.112;13.762;2023-04-15T01:39:42;98190.97;;;21.51;57.86
35704;BME280;21820;51.112;13.762;2023-04-15T01:42:08;98187.38;;;21.52;58.78
35704;BME280;21820;51.112;13.762;2023-04-15T01:44:34;98183.78;;;21.53;58.11
35704;BME280;21820;51.112;13.762;2023-04-15T01:46:59;98187.38;;;21.52;58.25
35704;BME280;21820;51.112;13.762;2023-04-15T01:49:25;98189.00;;;21.53;58.66
35704;BME280;21820;51.112;13.762;2023-04-15T01:51:50;98190.63;;;21.54;58.04
35704;BME280;21820;51.112;13.762;2023-04-15T01:54:15;98188.66;;;21.56;59.12
35704;BME280;21820;51.112;13.762;2023-04-15T01:56:40;98178.56;;;21.53;58.04
35704;BME280;21820;51.112;13.762;2023-04-15T01:59:06;98175.94;;;21.53;58.13
35704;BME280;21820;51.112;13.762;2023-04-15T02:01:31;98164.00;;;21.51;58.17
35704;BME280;21820;51.112;13.762;2023-04-15T02:03:57;98170.72;;;21.53;57.84
35704;BME280;21820;51.112;13.762;2023-04-15T02:06:22;98150.53;;;21.39;58.68
35704;BME280;21820;51.112;13.762;2023-04-15T02:08:48;98170.41;;;21.48;58.62
35704;BME280;21820;51.112;13.762;2023-04-15T02:11:14;98163.19;;;21.50;58.34
35704;BME280;21820;51.112;13.762;2023-04-15T02:13:39;98154.44;;;21.43;58.69
35704;BME280;21820;51.112;13.762;2023-04-15T02:16:17;98165.00;;;21.50;58.98
35704;BME280;21820;51.112;13.762;2023-04-15T02:18:45;98149.16;;;21.51;59.29
35704;BME280;21820;51.112;13.762;2023-04-15T02:21:11;98161.22;;;21.52;57.95
35704;BME280;21820;51.112;13.762;2023-04-15T02:23:37;98159.59;;;21.51;58.45
35704;BME280;21820;51.112;13.762;2023-04-15T02:26:02;98141.94;;;21.53;58.17
35704;BME280;21820;51.112;13.762;2023-04-15T02:28:27;98147.50;;;21.50;58.16
35704;BME280;21820;51.112;13.762;2023-04-15T02:30:53;98159.59;;;21.51;58.37
35704;BME280;21820;51.112;13.762;2023-04-15T02:33:21;98149.94;;;21.52;58.56
35704;BME280;21820;51.112;13.762;2023-04-15T02:35:46;98147.66;;;21.49;58.54
35704;BME280;21820;51.112;13.762;2023-04-15T02:38:12;98149.78;;;21.53;58.51
35704;BME280;21820;51.112;13.762;2023-04-15T02:40:38;98145.16;;;21.55;58.36
35704;BME280;21820;51.112;13.762;2023-04-15T02:43:04;98138.69;;;21.51;58.78
35704;BME280;21820;51.112;13.762;2023-04-15T02:45:31;98145.16;;;21.55;58.91
35704;BME280;21820;51.112;13.762;2023-04-15T02:47:56;98153.50;;;21.59;58.62
35704;BME280;21820;51.112;13.762;2023-04-15T02:50:22;98164.94;;;21.58;57.59
35704;BME280;21820;51.112;13.762;2023-04-15T02:52:48;98159.91;;;21.56;58.23
35704;BME280;21820;51.112;13.762;2023-04-15T02:55:14;98163.47;;;21.55;58.88
35704;BME280;21820;51.112;13.762;2023-04-15T02:57:39;98147.28;;;21.60;58.06
35704;BME280;21820;51.112;13.762;2023-04-15T03:00:06;98151.34;;;21.62;58.29
35704;BME280;21820;51.112;13.762;2023-04-15T03:02:37;98150.69;;;21.60;58.48
35704;BME280;21820;51.112;13.762;2023-04-15T03:05:04;98141.06;;;21.61;58.66
35704;BME280;21820;51.112;13.762;2023-04-15T03:07:30;98143.13;;;21.65;59.04
35704;BME280;21820;51.112;13.762;2023-04-15T03:09:55;98150.19;;;21.65;57.97
35704;BME280;21820;51.112;13.762;2023-04-15T03:12:21;98140.53;;;21.65;58.56
35704;BME280;21820;51.112;13.762;2023-04-15T03:14:46;98140.81;;;21.70;57.01
35704;BME280;21820;51.112;13.762;2023-04-15T03:17:12;98148.66;;;21.70;58.23
35704;BME280;21820;51.112;13.762;2023-04-15T03:19:37;98145.88;;;21.72;58.08
35704;BME280;21820;51.112;13.762;2023-04-15T03:22:02;98130.81;;;21.74;57.58
35704;BME280;21820;51.112;13.762;2023-04-15T03:24:28;98123.41;;;21.63;57.31
35704;BME280;21820;51.112;13.762;2023-04-15T03:26:54;98135.53;;;21.78;57.30
35704;BME280;21820;51.112;13.762;2023-04-15T03:29:20;98137.84;;;21.73;57.23
35704;BME280;21820;51.112;13.762;2023-04-15T03:31:45;98134.56;;;21.79;57.17
35704;BME280;21820;51.112;13.762;2023-04-15T03:34:11;98138.81;;;21.80;57.53
35704;BME280;21820;51.112;13.762;2023-04-15T03:36:36;98134.75;;;21.78;57.42
35704;BME280;21820;51.112;13.762;2023-04-15T03:39:01;98136.06;;;21.51;57.18
35704;BME280;21820;51.112;13.762;2023-04-15T03:41:27;98126.75;;;21.26;57.51
35704;BME280;21820;51.112;13.762;2023-04-15T03:43:53;98120.88;;;21.24;57.20
35704;BME280;21820;51.112;13.762;2023-04-15T03:46:18;98105.53;;;21.21;57.11
35704;BME280;21820;51.112;13.762;2023-04-15T03:48:43;98121.22;;;21.44;56.66
35704;BME280;21820;51.112;13.762;2023-04-15T03:51:09;98122.28;;;21.57;56.50
35704;BME280;21820;51.112;13.762;2023-04-15T03:53:35;98117.34;;;21.62;56.58
35704;BME280;21820;51.112;13.762;2023-04-15T03:56:00;98108.47;;;21.71;56.08
35704;BME280;21820;51.112;13.762;2023-04-15T03:58:26;98108.69;;;21.84;56.22
35704;BME280;21820;51.112;13.762;2023-04-15T04:00:51;98120.06;;;21.91;55.53
35704;BME280;21820;51.112;13.762;2023-04-15T04:03:17;98116.09;;;21.95;55.85
35704;BME280;21820;51.112;13.762;2023-04-15T04:05:42;98117.03;;;22.03;55.37
35704;BME280;21820;51.112;13.762;2023-04-15T04:08:09;98109.19;;;22.03;55.93
35704;BME280;21820;51.112;13.762;2023-04-15T04:10:35;98120.97;;;21.98;55.84
35704;BME280;21820;51.112;13.762;2023-04-15T04:13:00;98128.72;;;21.92;55.91
35704;BME280;21820;51.112;13.762;2023-04-15T04:15:26;98110.53;;;21.76;55.66
35704;BME280;21820;51.112;13.762;2023-04-15T04:17:51;98125.66;;;21.88;56.27
35704;BME280;21820;51.112;13.762;2023-04-15T04:20:17;98131.16;;;21.93;55.61
35704;BME280;21820;51.112;13.762;2023-04-15T04:22:42;98123.41;;;22.00;55.23
35704;BME280;21820;51.112;13.762;2023-04-15T04:25:08;98122.09;;;22.04;55.63
35704;BME280;21820;51.112;13.762;2023-04-15T04:27:34;98119.56;;;22.11;55.25
35704;BME280;21820;51.112;13.762;2023-04-15T04:30:00;98119.47;;;22.19;55.33
35704;BME280;21820;51.112;13.762;2023-04-15T04:32:26;98120.41;;;22.26;55.08
35704;BME280;21820;51.112;13.762;2023-04-15T04:34:51;98118.75;;;22.25;54.74
35704;BME280;21820;51.112;13.762;2023-04-15T04:37:17;98125.63;;;22.26;54.76
35704;BME280;21820;51.112;13.762;2023-04-15T04:39:42;98112.53;;;22.26;55.42
35704;BME280;21820;51.112;13.762;2023-04-15T04:42:07;98125.34;;;22.21;55.09
35704;BME280;21820;51.112;13.762;2023-04-15T04:44:33;98128.06;;;22.13;54.98
35704;BME280;21820;51.112;13.762;2023-04-15T04:46:58;98127.13;;;22.06;55.59
35704;BME280;21820;51.112;13.762;2023-04-15T04:49:23;98123.97;;;21.95;55.85
35704;BME280;21820;51.112;13.762;2023-04-15T04:51:49;98134.03;;;21.84;56.22
35704;BME280;21820;51.112;13.762;2023-04-15T04:54:15;98133.94;;;21.77;55.90
35704;BME280;21820;51.112;13.762;2023-04-15T04:56:40;98132.06;;;21.63;56.75
35704;BME280;21820;51.112;13.762;2023-04-15T04:59:05;98142.66;;;21.62;57.24
35704;BME280;21820;51.112;13.762;2023-04-15T05:01:31;98134.72;;;21.55;57.22
35704;BME280;21820;51.112;13.762;2023-04-15T05:03:57;98134.41;;;21.50;56.80
35704;BME280;21820;51.112;13.762;2023-04-15T05:06:22;98135.41;;;21.49;57.21
35704;BME280;21820;51.112;13.762;2023-04-15T05:08:47;98139.63;;;21.58;57.33
35704;BME280;21820;51.112;13.762;2023-04-15T05:11:13;98133.69;;;21.64;57.31
35704;BME280;21820;51.112;13.762;2023-04-15T05:13:38;98138.47;;;21.75;56.60
35704;BME280;21820;51.112;13.762;2023-04-15T05:16:05;98143.00;;;21.89;56.15
35704;BME280;21820;51.112;13.762;2023-04-15T05:18:30;98142.56;;;22.01;56.17
35704;BME280;21820;51.112;13.762;2023-04-15T05:20:56;98139.69;;;22.10;55.61
35704;BME280;21820;51.112;13.762;2023-04-15T05:23:21;98143.75;;;22.13;55.89
35704;BME280;21820;51.112;13.762;2023-04-15T05:25:47;98146.31;;;22.21;55.68
35704;BME280;21820;51.112;13.762;2023-04-15T05:28:12;98130.03;;;22.11;55.11
35704;BME280;21820;51.112;13.762;2023-04-15T05:30:38;98146.09;;;22.08;55.14
35704;BME280;21820;51.112;13.762;2023-04-15T05:33:03;98148.06;;;22.06;55.64
35704;BME280;21820;51.112;13.762;2023-04-15T05:35:29;98154.34;;;21.96;55.60
35704;BME280;21820;51.112;13.762;2023-04-15T05:37:54;98149.84;;;21.90;56.11
35704;BME280;21820;51.112;13.762;2023-04-15T05:40:20;98155.16;;;21.82;56.29
35704;BME280;21820;51.112;13.762;2023-04-15T05:42:45;98134.81;;;21.62;56.46
35704;BME280;21820;51.112;13.762;2023-04-15T05:45:10;98154.59;;;21.64;56.73
35704;BME280;21820;51.112;13.762;2023-04-15T05:47:36;98170.81;;;21.60;57.12
35704;BME280;21820;51.112;13.762;2023-04-15T05:50:02;98172.16;;;21.56;57.32
35704;BME280;21820;51.112;13.762;2023-04-15T05:52:28;98171.16;;;21.57;57.46
35704;BME280;21820;51.112;13.762;2023-04-15T05:54:53;98162.88;;;21.53;56.87
35704;BME280;21820;51.112;13.762;2023-04-15T05:57:18;98180.34;;;21.75;56.47
35704;BME280;21820;51.112;13.762;2023-04-15T05:59:43;98163.72;;;21.76;56.45
35704;BME280;21820;51.112;13.762;2023-04-15T06:02:09;98180.53;;;21.96;56.10
35704;BME280;21820;51.112;13.762;2023-04-15T06:04:34;98174.53;;;22.11;56.13
35704;BME280;21820;51.112;13.762;2023-04-15T06:07:01;98187.53;;;22.19;55.05
35704;BME280;21820;51.112;13.762;2023-04-15T06:09:26;98183.59;;;22.23;55.61
35704;BME280;21820;51.112;13.762;2023-04-15T06:11:53;98185.84;;;22.26;54.98
35704;BME280;21820;51.112;13.762;2023-04-15T06:14:18;98195.03;;;22.22;55.26
35704;BME280;21820;51.112;13.762;2023-04-15T06:16:44;98172.09;;;22.09;55.52
35704;BME280;21820;51.112;13.762;2023-04-15T06:19:09;98199.69;;;22.12;55.39
35704;BME280;21820;51.112;13.762;2023-04-15T06:21:34;98176.94;;;21.98;55.80
35704;BME280;21820;51.112;13.762;2023-04-15T06:24:00;98189.38;;;21.95;56.01
35704;BME280;21820;51.112;13.762;2023-04-15T06:26:26;98192.53;;;21.91;56.17
35704;BME280;21820;51.112;13.762;2023-04-15T06:28:52;98200.09;;;21.86;56.59
35704;BME280;21820;51.112;13.762;2023-04-15T06:31:17;98202.59;;;21.79;56.65
35704;BME280;21820;51.112;13.762;2023-04-15T06:33:43;98200.00;;;21.71;56.60
35704;BME280;21820;51.112;13.762;2023-04-15T06:36:08;98202.03;;;21.61;57.19
35704;BME280;21820;51.112;13.762;2023-04-15T06:38:33;98199.91;;;21.57;56.72
35704;BME280;21820;51.112;13.762;2023-04-15T06:40:59;98209.59;;;21.56;56.83
35704;BME280;21820;51.112;13.762;2023-04-15T06:43:25;98212.88;;;21.50;56.64
35704;BME280;21820;51.112;13.762;2023-04-15T06:45:50;98209.81;;;21.47;56.90
35704;BME280;21820;51.112;13.762;2023-04-15T06:48:16;98210.59;;;21.47;56.39
35704;BME280;21820;51.112;13.762;2023-04-15T06:50:42;98204.72;;;21.45;56.51
35704;BME280;21820;51.112;13.762;2023-04-15T06:53:07;98208.34;;;21.44;56.54
35704;BME280;21820;51.112;13.762;2023-04-15T06:55:33;98209.66;;;21.40;57.01
35704;BME280;21820;51.112;13.762;2023-04-15T06:57:58;98214.88;;;21.40;56.94
35704;BME280;21820;51.112;13.762;2023-04-15T07:00:23;98217.66;;;21.39;56.65
35704;BME280;21820;51.112;13.762;2023-04-15T07:02:49;98219.19;;;21.33;56.96
35704;BME280;21820;51.112;13.762;2023-04-15T07:05:15;98226.69;;;21.36;56.54
35704;BME280;21820;51.112;13.762;2023-04-15T07:07:41;98228.00;;;21.32;56.59
35704;BME280;21820;51.112;13.762;2023-04-15T07:10:07;98221.19;;;21.23;56.75
35704;BME280;21820;51.112;13.762;2023-04-15T07:12:33;98234.53;;;21.36;56.87
35704;BME280;21820;51.112;13.762;2023-04-15T07:14:59;98233.22;;;21.32;57.00
35704;BME280;21820;51.112;13.762;2023-04-15T07:17:24;98230.63;;;21.32;56.62
35704;BME280;21820;51.112;13.762;2023-04-15T07:19:50;98238.47;;;21.32;56.93
35704;BME280;21820;51.112;13.762;2023-04-15T07:22:16;98237.00;;;21.30;56.69
35704;BME280;21820;51.112;13.762;2023-04-15T07:24:41;98250.09;;;21.30;56.54
35704;BME280;21820;51.112;13.762;2023-04-15T07:27:06;98247.28;;;21.31;56.33
35704;BME280;21820;51.112;13.762;2023-04-15T07:29:32;98248.91;;;21.32;56.68
35704;BME280;21820;51.112;13.762;2023-04-15T07:31:57;98253.66;;;21.29;56.47
35704;BME280;21820;51.112;13.762;2023-04-15T07:34:23;98261.38;;;21.30;56.36
35704;BME280;21820;51.112;13.762;2023-04-15T07:36:48;98261.38;;;21.30;56.45
35704;BME280;21820;51.112;13.762;2023-04-15T07:39:16;98258.75;;;21.30;56.34
35704;BME280;21820;51.112;13.762;2023-04-15T07:41:42;98264.94;;;21.29;56.95
35704;BME280;21820;51.112;13.762;2023-04-15T07:44:07;98262.50;;;21.28;56.95
35704;BME280;21820;51.112;13.762;2023-04-15T07:46:33;98266.91;;;21.27;57.07
35704;BME280;21820;51.112;13.762;2023-04-15T07:48:58;98262.97;;;21.31;57.02
35704;BME280;21820;51.112;13.762;2023-04-15T07:51:24;98270.16;;;21.29;57.03
35704;BME280;21820;51.112;13.762;2023-04-15T07:53:50;98267.38;;;21.31;57.04
35704;BME280;21820;51.112;13.762;2023-04-15T07:56:15;98264.94;;;21.29;56.74
35704;BME280;21820;51.112;13.762;2023-04-15T07:58:41;98267.56;;;21.29;56.65
35704;BME280;21820;51.112;13.762;2023-04-15T08:01:07;98270.00;;;21.31;56.72
35704;BME280;21820;51.112;13.762;2023-04-15T08:03:32;98263.97;;;21.22;57.21
35704;BME280;21820;51.112;13.762;2023-04-15T08:05:58;98281.28;;;21.31;57.27
35704;BME280;21820;51.112;13.762;2023-04-15T08:08:23;98281.44;;;21.30;57.23
35704;BME280;21820;51.112;13.762;2023-04-15T08:10:49;98291.75;;;21.31;57.75
35704;BME280;21820;51.112;13.762;2023-04-15T08:13:15;98293.34;;;21.32;56.98
35704;BME280;21820;51.112;13.762;2023-04-15T08:15:40;98291.56;;;21.33;56.79
35704;BME280;21820;51.112;13.762;2023-04-15T08:18:06;98293.34;;;21.32;57.68
35704;BME280;21820;51.112;13.762;2023-04-15T08:20:31;98301.53;;;21.29;57.39
35704;BME280;21820;51.112;13.762;2023-04-15T08:22:57;98299.75;;;21.30;57.23
35704;BME280;21820;51.112;13.762;2023-04-15T08:25:22;98301.19;;;21.32;57.38
35704;BME280;21820;51.112;13.762;2023-04-15T08:27:48;98307.41;;;21.31;57.46
35704;BME280;21820;51.112;13.762;2023-04-15T08:30:13;98305.81;;;21.30;57.30
35704;BME280;21820;51.112;13.762;2023-04-15T08:32:41;98305.94;;;21.29;56.55
35704;BME280;21820;51.112;13.762;2023-04-15T08:35:07;98310.38;;;21.28;56.59
35704;BME280;21820;51.112;13.762;2023-04-15T08:37:32;98313.16;;;21.27;56.92
35704;BME280;21820;51.112;13.762;2023-04-15T08:39:57;98307.94;;;21.27;57.28
35704;BME280;21820;51.112;13.762;2023-04-15T08:42:27;98306.13;;;21.27;57.23
35704;BME280;21820;51.112;13.762;2023-04-15T08:44:55;98312.34;;;21.26;56.74
35704;BME280;21820;51.112;13.762;2023-04-15T08:47:21;98313.97;;;21.27;56.89
35704;BME280;21820;51.112;13.762;2023-04-15T08:49:50;98308.72;;;21.27;57.11
35704;BME280;21820;51.112;13.762;2023-04-15T08:52:18;98321.50;;;21.30;56.95
35704;BME280;21820;51.112;13.762;2023-04-15T08:54:44;98298.97;;;21.21;56.97
35704;BME280;21820;51.112;13.762;2023-04-15T08:57:10;98316.56;;;21.27;57.24
35704;BME280;21820;51.112;13.762;2023-04-15T08:59:35;98326.84;;;21.29;57.23
35704;BME280;21820;51.112;13.762;2023-04-15T09:02:01;98320.19;;;21.26;57.53
35704;BME280;21820;51.112;13.762;2023-04-15T09:04:27;98330.47;;;21.28;57.51
35704;BME280;21820;51.112;13.762;2023-04-15T09:06:53;98339.78;;;21.30;57.02
35704;BME280;21820;51.112;13.762;2023-04-15T09:09:19;98340.91;;;21.28;57.47
35704;BME280;21820;51.112;13.762;2023-04-15T09:11:44;98335.03;;;21.26;57.70
35704;BME280;21820;51.112;13.762;2023-04-15T09:14:09;98338.13;;;21.29;57.49
35704;BME280;21820;51.112;13.762;2023-04-15T09:17:01;98347.16;;;21.27;57.49
35704;BME280;21820;51.112;13.762;2023-04-15T09:19:27;98341.91;;;21.27;57.65
35704;BME280;21820;51.112;13.762;2023-04-15T09:21:54;98347.31;;;21.25;57.84
35704;BME280;21820;51.112;13.762;2023-04-15T09:24:21;98338.50;;;21.18;57.24
35704;BME280;21820;51.112;13.762;2023-04-15T09:26:47;98352.69;;;21.24;57.89
35704;BME280;21820;51.112;13.762;2023-04-15T09:29:12;98353.16;;;21.27;57.42
35704;BME280;21820;51.112;13.762;2023-04-15T09:31:38;98359.38;;;21.26;57.34
35704;BME280;21820;51.112;13.762;2023-04-15T09:34:05;98359.38;;;21.26;57.33
35704;BME280;21820;51.112;13.762;2023-04-15T09:39:11;98371.47;;;21.27;57.96
35704;BME280;21820;51.112;13.762;2023-04-15T09:41:36;98369.50;;;21.29;57.41
35704;BME280;21820;51.112;13.762;2023-04-15T09:44:03;98379.31;;;21.27;57.74
35704;BME280;21820;51.112;13.762;2023-04-15T09:46:44;98373.13;;;21.28;58.36
35704;BME280;21820;51.112;13.762;2023-04-15T09:49:10;98370.84;;;21.17;57.45
35704;BME280;21820;51.112;13.762;2023-04-15T09:51:36;98388.31;;;21.25;57.60
35704;BME280;21820;51.112;13.762;2023-04-15T09:54:02;98390.75;;;21.26;57.67
35704;BME280;21820;51.112;13.762;2023-04-15T09:56:35;98390.41;;;21.29;57.89
35704;BME280;21820;51.112;13.762;2023-04-15T09:59:06;98382.09;;;21.26;58.28
35704;BME280;21820;51.112;13.762;2023-04-15T10:01:31;98394.03;;;21.28;58.04
35704;BME280;21820;51.112;13.762;2023-04-15T10:03:57;98381.91;;;21.27;57.43
35704;BME280;21820;51.112;13.762;2023-04-15T10:06:25;98394.03;;;21.28;57.64
35704;BME280;21820;51.112;13.762;2023-04-15T10:08:51;98397.59;;;21.27;57.61
35704;BME280;21820;51.112;13.762;2023-04-15T10:11:17;98402.22;;;21.25;57.98
35704;BME280;21820;51.112;13.762;2023-04-15T10:13:45;98408.72;;;21.29;57.67
35704;BME280;21820;51.112;13.762;2023-04-15T10:16:14;98408.38;;;21.32;58.13
35704;BME280;21820;51.112;13.762;2023-04-15T10:18:46;98410.31;;;21.46;56.97
35704;BME280;21820;51.112;13.762;2023-04-15T10:21:13;98409.63;;;21.60;57.09
35704;BME280;21820;51.112;13.762;2023-04-15T10:23:42;98414.16;;;21.74;56.88
35704;BME280;21820;51.112;13.762;2023-04-15T10:26:08;98414.16;;;21.82;56.68
35704;BME280;21820;51.112;13.762;2023-04-15T10:28:37;98413.59;;;21.95;56.05
35704;BME280;21820;51.112;13.762;2023-04-15T10:31:03;98411.41;;;22.07;55.86
35704;BME280;21820;51.112;13.762;2023-04-15T10:33:30;98418.25;;;22.16;55.80
35704;BME280;21820;51.112;13.762;2023-04-15T10:35:56;98412.84;;;22.17;55.21
35704;BME280;21820;51.112;13.762;2023-04-15T10:41:24;98418.31;;;22.08;55.46
35704;BME280;21820;51.112;13.762;2023-04-15T10:49:09;98420.69;;;21.86;56.51
35704;BME280;21820;51.112;13.762;2023-04-15T10:51:38;98425.31;;;21.76;56.13
35704;BME280;21820;51.112;13.762;2023-04-15T10:54:13;98429.53;;;21.69;56.51
35704;BME280;21820;51.112;13.762;2023-04-15T10:56:50;98422.53;;;21.62;57.00
35704;BME280;21820;51.112;13.762;2023-04-15T10:59:15;98423.19;;;21.56;56.91
35704;BME280;21820;51.112;13.762;2023-04-15T11:01:54;98435.13;;;21.50;57.54
35704;BME280;21820;51.112;13.762;2023-04-15T11:04:52;98427.16;;;21.44;57.25
35704;BME280;21820;51.112;13.762;2023-04-15T11:12:56;98433.47;;;21.65;57.55
35704;BME280;21820;51.112;13.762;2023-04-15T11:15:33;98443.44;;;21.78;56.36
35704;BME280;21820;51.112;13.762;2023-04-15T11:20:33;98449.22;;;22.04;55.91
35704;BME280;21820;51.112;13.762;2023-04-15T11:22:58;98451.81;;;22.12;55.64
35704;BME280;21820;51.112;13.762;2023-04-15T11:25:26;98455.38;;;22.19;55.87
35704;BME280;21820;51.112;13.762;2023-04-15T11:27:53;98451.28;;;22.17;56.12
35704;BME280;21820;51.112;13.762;2023-04-15T11:30:22;98459.50;;;22.14;56.01
35704;BME280;21820;51.112;13.762;2023-04-15T11:32:48;98462.16;;;22.06;55.96
35704;BME280;21820;51.112;13.762;2023-04-15T11:35:15;98465.28;;;22.01;56.39
35704;BME280;21820;51.112;13.762;2023-04-15T11:37:41;98461.22;;;21.90;56.17
35704;BME280;21820;51.112;13.762;2023-04-15T11:40:07;98474.81;;;21.86;56.72
35704;BME280;21820;51.112;13.762;2023-04-15T11:42:33;98450.66;;;21.68;56.69
35704;BME280;21820;51.112;13.762;2023-04-15T11:47:34;98478.09;;;21.64;57.26
35704;BME280;21820;51.112;13.762;2023-04-15T11:50:33;98477.28;;;21.55;57.40
35704;BME280;21820;51.112;13.762;2023-04-15T11:53:03;98482.38;;;21.49;57.28
35704;BME280;21820;51.112;13.762;2023-04-15T11:55:29;98489.09;;;21.51;57.27
35704;BME280;21820;51.112;13.762;2023-04-15T11:58:09;98483.34;;;21.56;57.20
35704;BME280;21820;51.112;13.762;2023-04-15T12:00:35;98490.38;;;21.63;57.33
35704;BME280;21820;51.112;13.762;2023-04-15T12:11:12;98494.34;;;22.14;55.63
35704;BME280;21820;51.112;13.762;2023-04-15T12:13:43;98509.03;;;22.23;55.57
35704;BME280;21820;51.112;13.762;2023-04-15T12:16:08;98501.16;;;22.23;55.98
35704;BME280;21820;51.112;13.762;2023-04-15T12:18:36;98487.63;;;22.12;55.85
35704;BME280;21820;51.112;13.762;2023-04-15T12:21:11;98510.72;;;22.16;55.81
35704;BME280;21820;51.112;13.762;2023-04-15T12:23:38;98517.59;;;22.09;55.96
35704;BME280;21820;51.112;13.762;2023-04-15T12:26:04;98513.84;;;22.04;56.43
35704;BME280;21820;51.112;13.762;2023-04-15T12:28:30;98525.66;;;22.00;56.01
35704;BME280;21820;51.112;13.762;2023-04-15T12:30:56;98528.25;;;21.91;56.23
35704;BME280;21820;51.112;13.762;2023-04-15T12:33:21;98535.50;;;21.81;57.09
35704;BME280;21820;51.112;13.762;2023-04-15T12:35:47;98534.34;;;21.76;56.93
35704;BME280;21820;51.112;13.762;2023-04-15T12:38:12;98532.88;;;21.65;57.04
35704;BME280;21820;51.112;13.762;2023-04-15T12:40:37;98520.47;;;21.51;57.33
35704;BME280;21820;51.112;13.762;2023-04-15T12:43:03;98536.16;;;21.59;57.82
35704;BME280;21820;51.112;13.762;2023-04-15T12:45:28;98537.44;;;21.55;57.15
35704;BME280;21820;51.112;13.762;2023-04-15T12:47:53;98529.63;;;21.47;57.71
35704;BME280;21820;51.112;13.762;2023-04-15T12:50:19;98543.16;;;21.59;57.63
35704;BME280;21820;51.112;13.762;2023-04-15T12:52:44;98543.81;;;21.69;57.35
35704;BME280;21820;51.112;13.762;2023-04-15T12:55:09;98555.09;;;21.85;57.46
35704;BME280;21820;51.112;13.762;2023-04-15T12:57:37;98550.16;;;21.98;56.75
35704;BME280;21820;51.112;13.762;2023-04-15T13:00:02;98549.00;;;22.09;56.48
35704;BME280;21820;51.112;13.762;2023-04-15T13:02:30;98553.03;;;22.20;55.77
35704;BME280;21820;51.112;13.762;2023-04-15T13:04:56;98560.25;;;22.26;55.61
35704;BME280;21820;51.112;13.762;2023-04-15T13:07:21;98567.63;;;22.22;55.44
35704;BME280;21820;51.112;13.762;2023-04-15T13:09:46;98566.97;;;22.20;56.02
35704;BME280;21820;51.112;13.762;2023-04-15T13:12:12;98561.41;;;22.15;56.18
35704;BME280;21820;51.112;13.762;2023-04-15T13:14:38;98567.81;;;22.13;55.67
35704;BME280;21820;51.112;13.762;2023-04-15T13:17:03;98565.06;;;22.06;56.50